sensor_id;sensor_type;location;lat;lon;timestamp;temperature;humidity
3678;DHT22;1855;50.934;6.958;2023-05-16T00:01:55;11.30;99.90
3678;DHT22;1855;50.934;6.958;2023-05-16T00:04:22;11.10;99.90
3678;DHT22;1855;50.934;6.958;2023-05-16T00:06:49;11.10;99.90
3678;DHT22;1855;50.934;6.958;2023-05-16T00:09:17;11.10;99.90
3678;DHT22;1855;50.934;6.958;2023-05-16T00:11:44;11.20;99.90
3678;DHT22;1855;50.934;6.958;2023-05-16T00:14:11;11.20;99.90
3678;DHT22;1855;50.934;6.958;2023-05-16T00:16:39;11.10;99.90
3678;DHT22;1855;50.934;6.958;2023-05-16T00:19:06;11.00;99.90
3678;DHT22;1855;50.934;6.958;2023-05-16T00:21:34;11.00;99.90
3678;DHT22;1855;50.934;6.958;2023-05-16T00:24:01;10.90;99.90
3678;DHT22;1855;50.934;6.958;2023-05-16T00:26:30;10.90;99.90
3678;DHT22;1855;50.934;6.958;2023-05-16T00:28:56;10.90;99.90
3678;DHT22;1855;50.934;6.958;2023-05-16T00:31:23;10.90;99.90
3678;DHT22;1855;50.934;6.958;2023-05-16T00:33:50;10.90;99.90
3678;DHT22;1855;50.934;6.958;2023-05-16T00:36:16;11.00;99.90
3678;DHT22;1855;50.934;6.958;2023-05-16T00:38:43;11.00;99.90
3678;DHT22;1855;50.934;6.958;2023-05-16T00:41:10;11.00;99.90
3678;DHT22;1855;50.934;6.958;2023-05-16T00:43:38;10.90;99.90
3678;DHT22;1855;50.934;6.958;2023-05-16T00:46:05;10.90;99.90
3678;DHT22;1855;50.934;6.958;2023-05-16T00:48:32;10.90;99.90
3678;DHT22;1855;50.934;6.958;2023-05-16T00:51:00;10.80;99.90
3678;DHT22;1855;50.934;6.958;2023-05-16T00:53:27;10.80;99.90
3678;DHT22;1855;50.934;6.958;2023-05-16T00:55:54;10.80;99.90
3678;DHT22;1855;50.934;6.958;2023-05-16T00:58:21;10.80;99.90
3678;DHT22;1855;50.934;6.958;2023-05-16T01:00:50;10.80;99.90
3678;DHT22;1855;50.934;6.958;2023-05-16T01:03:17;10.90;99.90
3678;DHT22;1855;50.934;6.958;2023-05-16T01:05:44;10.90;99.90
3678;DHT22;1855;50.934;6.958;2023-05-16T01:08:11;10.90;99.90
3678;DHT22;1855;50.934;6.958;2023-05-16T01:10:43;10.90;99.90
3678;DHT22;1855;50.934;6.958;2023-05-16T01:13:14;11.00;99.90
3678;DHT22;1855;50.934;6.958;2023-05-16T01:15:47;11.00;99.90
3678;DHT22;1855;50.934;6.958;2023-05-16T01:18:23;11.00;99.90
3678;DHT22;1855;50.934;6.958;2023-05-16T01:20:55;11.00;99.90
3678;DHT22;1855;50.934;6.958;2023-05-16T01:23:39;11.10;99.90
3678;DHT22;1855;50.934;6.958;2023-05-16T01:26:18;11.10;99.90
3678;DHT22;1855;50.934;6.958;2023-05-16T01:28:47;11.10;99.90
3678;DHT22;1855;50.934;6.958;2023-05-16T01:31:14;11.00;99.90
3678;DHT22;1855;50.934;6.958;2023-05-16T01:33:42;11.00;99.90
3678;DHT22;1855;50.934;6.958;2023-05-16T01:36:16;11.00;99.90
3678;DHT22;1855;50.934;6.958;2023-05-16T01:38:51;11.00;99.90
3678;DHT22;1855;50.934;6.958;2023-05-16T01:41:26;11.00;99.90
3678;DHT22;1855;50.934;6.958;2023-05-16T01:43:59;11.10;99.90
3678;DHT22;1855;50.934;6.958;2023-05-16T01:46:31;11.10;99.90
3678;DHT22;1855;50.934;6.958;2023-05-16T01:49:04;11.00;99.90
3678;DHT22;1855;50.934;6.958;2023-05-16T01:51:42;10.90;99.90
3678;DHT22;1855;50.934;6.958;2023-05-16T01:54:12;10.90;99.90
3678;DHT22;1855;50.934;6.958;2023-05-16T01:56:49;10.90;99.90
3678;DHT22;1855;50.934;6.958;2023-05-16T01:59:17;10.80;99.90
3678;DHT22;1855;50.934;6.958;2023-05-16T02:01:45;10.70;99.90
3678;DHT22;1855;50.934;6.958;2023-05-16T02:04:12;10.70;99.90
3678;DHT22;1855;50.934;6.958;2023-05-16T02:06:40;10.70;99.90
3678;DHT22;1855;50.934;6.958;2023-05-16T02:09:07;10.70;99.90
3678;DHT22;1855;50.934;6.958;2023-05-16T02:11:34;10.60;99.90
3678;DHT22;1855;50.934;6.958;2023-05-16T02:14:02;10.60;99.90
3678;DHT22;1855;50.934;6.958;2023-05-16T02:16:29;10.60;99.90
3678;DHT22;1855;50.934;6.958;2023-05-16T02:18:56;10.50;99.90
3678;DHT22;1855;50.934;6.958;2023-05-16T02:21:23;10.50;99.90
3678;DHT22;1855;50.934;6.958;2023-05-16T02:23:49;10.50;99.90
3678;DHT22;1855;50.934;6.958;2023-05-16T02:26:16;10.50;99.90
3678;DHT22;1855;50.934;6.958;2023-05-16T02:28:43;10.50;99.90
3678;DHT22;1855;50.934;6.958;2023-05-16T02:31:11;10.40;99.90
3678;DHT22;1855;50.934;6.958;2023-05-16T02:33:38;10.30;99.90
3678;DHT22;1855;50.934;6.958;2023-05-16T02:36:06;10.20;99.90
3678;DHT22;1855;50.934;6.958;2023-05-16T02:38:33;10.20;99.90
3678;DHT22;1855;50.934;6.958;2023-05-16T02:40:59;10.20;99.90
3678;DHT22;1855;50.934;6.958;2023-05-16T02:43:26;10.20;99.90
3678;DHT22;1855;50.934;6.958;2023-05-16T02:45:53;10.10;99.90
3678;DHT22;1855;50.934;6.958;2023-05-16T02:48:21;10.10;99.90
3678;DHT22;1855;50.934;6.958;2023-05-16T02:50:48;10.10;99.90
3678;DHT22;1855;50.934;6.958;2023-05-16T02:53:15;10.10;99.90
3678;DHT22;1855;50.934;6.958;2023-05-16T02:55:42;10.00;99.90
3678;DHT22;1855;50.934;6.958;2023-05-16T02:58:08;10.00;99.90
3678;DHT22;1855;50.934;6.958;2023-05-16T03:00:35;9.90;99.90
3678;DHT22;1855;50.934;6.958;2023-05-16T03:03:03;10.00;99.90
3678;DHT22;1855;50.934;6.958;2023-05-16T03:05:31;9.90;99.90
3678;DHT22;1855;50.934;6.958;2023-05-16T03:07:58;9.90;99.90
3678;DHT22;1855;50.934;6.958;2023-05-16T03:10:25;9.90;99.90
3678;DHT22;1855;50.934;6.958;2023-05-16T03:12:52;9.90;99.90
3678;DHT22;1855;50.934;6.958;2023-05-16T03:15:18;9.80;99.90
3678;DHT22;1855;50.934;6.958;2023-05-16T03:17:45;9.90;99.90
3678;DHT22;1855;50.934;6.958;2023-05-16T03:20:12;9.90;99.90
3678;DHT22;1855;50.934;6.958;2023-05-16T03:22:41;9.80;99.90
3678;DHT22;1855;50.934;6.958;2023-05-16T03:25:09;9.90;99.90
3678;DHT22;1855;50.934;6.958;2023-05-16T03:27:36;9.80;99.90
3678;DHT22;1855;50.934;6.958;2023-05-16T03:30:03;9.80;99.90
3678;DHT22;1855;50.934;6.958;2023-05-16T03:32:32;9.80;99.90
3678;DHT22;1855;50.934;6.958;2023-05-16T03:34:59;9.80;99.90
3678;DHT22;1855;50.934;6.958;2023-05-16T03:37:26;9.80;99.90
3678;DHT22;1855;50.934;6.958;2023-05-16T03:39:54;9.80;99.90
3678;DHT22;1855;50.934;6.958;2023-05-16T03:42:21;9.80;99.90
3678;DHT22;1855;50.934;6.958;2023-05-16T03:44:48;9.80;99.90
3678;DHT22;1855;50.934;6.958;2023-05-16T03:47:14;9.80;99.90
3678;DHT22;1855;50.934;6.958;2023-05-16T03:49:41;9.80;99.90
3678;DHT22;1855;50.934;6.958;2023-05-16T03:52:08;9.80;99.90
3678;DHT22;1855;50.934;6.958;2023-05-16T03:54:34;9.90;99.90
3678;DHT22;1855;50.934;6.958;2023-05-16T03:57:03;9.90;99.90
3678;DHT22;1855;50.934;6.958;2023-05-16T03:59:30;9.80;99.90
3678;DHT22;1855;50.934;6.958;2023-05-16T04:01:57;9.80;99.90
3678;DHT22;1855;50.934;6.958;2023-05-16T04:04:23;9.80;99.90
3678;DHT22;1855;50.934;6.958;2023-05-16T04:06:50;9.70;99.90
3678;DHT22;1855;50.934;6.958;2023-05-16T04:09:17;9.70;99.90
3678;DHT22;1855;50.934;6.958;2023-05-16T04:11:44;9.70;99.90
3678;DHT22;1855;50.934;6.958;2023-05-16T04:14:12;9.70;99.90
3678;DHT22;1855;50.934;6.958;2023-05-16T04:16:40;9.70;99.90
3678;DHT22;1855;50.934;6.958;2023-05-16T04:19:06;9.70;99.90
3678;DHT22;1855;50.934;6.958;2023-05-16T04:21:33;9.60;99.90
3678;DHT22;1855;50.934;6.958;2023-05-16T04:24:00;9.60;99.90
3678;DHT22;1855;50.934;6.958;2023-05-16T04:26:27;9.60;99.90
3678;DHT22;1855;50.934;6.958;2023-05-16T04:28:54;9.60;99.90
3678;DHT22;1855;50.934;6.958;2023-05-16T04:31:23;9.60;99.90
3678;DHT22;1855;50.934;6.958;2023-05-16T04:33:50;9.60;99.90
3678;DHT22;1855;50.934;6.958;2023-05-16T04:36:18;9.60;99.90
3678;DHT22;1855;50.934;6.958;2023-05-16T04:38:45;9.60;99.90
3678;DHT22;1855;50.934;6.958;2023-05-16T04:41:12;9.60;99.90
3678;DHT22;1855;50.934;6.958;2023-05-16T04:43:39;9.60;99.90
3678;DHT22;1855;50.934;6.958;2023-05-16T04:46:06;9.60;99.90
3678;DHT22;1855;50.934;6.958;2023-05-16T04:48:34;9.60;99.90
3678;DHT22;1855;50.934;6.958;2023-05-16T04:51:01;9.50;99.90
3678;DHT22;1855;50.934;6.958;2023-05-16T04:53:28;9.50;99.90
3678;DHT22;1855;50.934;6.958;2023-05-16T04:55:54;9.40;99.90
3678;DHT22;1855;50.934;6.958;2023-05-16T04:58:21;9.40;99.90
3678;DHT22;1855;50.934;6.958;2023-05-16T05:00:49;9.30;99.90
3678;DHT22;1855;50.934;6.958;2023-05-16T05:03:16;9.30;99.90
3678;DHT22;1855;50.934;6.958;2023-05-16T05:05:44;9.30;99.90
3678;DHT22;1855;50.934;6.958;2023-05-16T05:08:12;9.30;99.90
3678;DHT22;1855;50.934;6.958;2023-05-16T05:10:39;9.30;99.90
3678;DHT22;1855;50.934;6.958;2023-05-16T05:13:06;9.30;99.90
3678;DHT22;1855;50.934;6.958;2023-05-16T05:15:33;9.30;99.90
3678;DHT22;1855;50.934;6.958;2023-05-16T05:18:00;9.20;99.90
3678;DHT22;1855;50.934;6.958;2023-05-16T05:20:27;9.20;99.90
3678;DHT22;1855;50.934;6.958;2023-05-16T05:22:55;9.10;99.90
3678;DHT22;1855;50.934;6.958;2023-05-16T05:25:21;9.10;99.90
3678;DHT22;1855;50.934;6.958;2023-05-16T05:27:48;9.10;99.90
3678;DHT22;1855;50.934;6.958;2023-05-16T05:30:15;9.20;99.90
3678;DHT22;1855;50.934;6.958;2023-05-16T05:32:42;9.20;99.90
3678;DHT22;1855;50.934;6.958;2023-05-16T05:35:09;9.10;99.90
3678;DHT22;1855;50.934;6.958;2023-05-16T05:37:36;9.20;99.90
3678;DHT22;1855;50.934;6.958;2023-05-16T05:40:06;9.20;99.90
3678;DHT22;1855;50.934;6.958;2023-05-16T05:42:33;9.30;99.90
3678;DHT22;1855;50.934;6.958;2023-05-16T05:44:59;9.30;99.90
3678;DHT22;1855;50.934;6.958;2023-05-16T05:47:26;9.30;99.90
3678;DHT22;1855;50.934;6.958;2023-05-16T05:49:53;9.30;99.90
3678;DHT22;1855;50.934;6.958;2023-05-16T05:52:20;9.40;99.90
3678;DHT22;1855;50.934;6.958;2023-05-16T05:54:47;9.40;99.90
3678;DHT22;1855;50.934;6.958;2023-05-16T05:57:15;9.40;99.90
3678;DHT22;1855;50.934;6.958;2023-05-16T05:59:41;9.40;99.90
3678;DHT22;1855;50.934;6.958;2023-05-16T06:02:08;9.50;99.90
3678;DHT22;1855;50.934;6.958;2023-05-16T06:04:35;9.60;99.90
3678;DHT22;1855;50.934;6.958;2023-05-16T06:07:02;9.70;99.90
3678;DHT22;1855;50.934;6.958;2023-05-16T06:09:29;9.70;99.90
3678;DHT22;1855;50.934;6.958;2023-05-16T06:11:55;9.70;99.90
3678;DHT22;1855;50.934;6.958;2023-05-16T06:14:24;9.70;99.90
3678;DHT22;1855;50.934;6.958;2023-05-16T06:16:50;9.70;99.90
3678;DHT22;1855;50.934;6.958;2023-05-16T06:19:17;9.70;99.90
3678;DHT22;1855;50.934;6.958;2023-05-16T06:21:44;9.70;99.90
3678;DHT22;1855;50.934;6.958;2023-05-16T06:24:11;9.70;99.90
3678;DHT22;1855;50.934;6.958;2023-05-16T06:26:37;9.70;99.90
3678;DHT22;1855;50.934;6.958;2023-05-16T06:29:04;9.70;99.90
3678;DHT22;1855;50.934;6.958;2023-05-16T06:31:32;9.80;99.90
3678;DHT22;1855;50.934;6.958;2023-05-16T06:33:59;9.80;99.90
3678;DHT22;1855;50.934;6.958;2023-05-16T06:36:26;9.80;99.90
3678;DHT22;1855;50.934;6.958;2023-05-16T06:38:52;9.90;99.90
3678;DHT22;1855;50.934;6.958;2023-05-16T06:41:19;10.00;99.90
3678;DHT22;1855;50.934;6.958;2023-05-16T06:43:46;10.10;99.90
3678;DHT22;1855;50.934;6.958;2023-05-16T06:46:12;10.20;99.90
3678;DHT22;1855;50.934;6.958;2023-05-16T06:48:41;10.30;99.90
3678;DHT22;1855;50.934;6.958;2023-05-16T06:51:07;10.40;99.80
3678;DHT22;1855;50.934;6.958;2023-05-16T06:53:34;10.50;99.90
3678;DHT22;1855;50.934;6.958;2023-05-16T06:56:01;10.50;98.50
3678;DHT22;1855;50.934;6.958;2023-05-16T06:58:28;10.60;97.90
3678;DHT22;1855;50.934;6.958;2023-05-16T07:00:54;10.60;98.10
3678;DHT22;1855;50.934;6.958;2023-05-16T07:03:21;10.50;97.70
3678;DHT22;1855;50.934;6.958;2023-05-16T07:05:49;10.50;97.30
3678;DHT22;1855;50.934;6.958;2023-05-16T07:08:17;10.50;97.50
3678;DHT22;1855;50.934;6.958;2023-05-16T07:10:44;10.50;96.90
3678;DHT22;1855;50.934;6.958;2023-05-16T07:13:11;10.50;97.40
3678;DHT22;1855;50.934;6.958;2023-05-16T07:15:37;10.50;96.80
3678;DHT22;1855;50.934;6.958;2023-05-16T07:18:04;10.50;96.00
3678;DHT22;1855;50.934;6.958;2023-05-16T07:20:31;10.50;96.20
3678;DHT22;1855;50.934;6.958;2023-05-16T07:22:59;10.50;96.20
3678;DHT22;1855;50.934;6.958;2023-05-16T07:25:26;10.50;96.10
3678;DHT22;1855;50.934;6.958;2023-05-16T07:27:53;10.60;95.60
3678;DHT22;1855;50.934;6.958;2023-05-16T07:30:20;10.60;95.50
3678;DHT22;1855;50.934;6.958;2023-05-16T07:32:46;10.70;94.70
3678;DHT22;1855;50.934;6.958;2023-05-16T07:35:13;10.90;93.90
3678;DHT22;1855;50.934;6.958;2023-05-16T07:37:40;11.10;93.70
3678;DHT22;1855;50.934;6.958;2023-05-16T07:40:10;11.30;92.80
3678;DHT22;1855;50.934;6.958;2023-05-16T07:42:37;11.60;91.60
3678;DHT22;1855;50.934;6.958;2023-05-16T07:45:04;11.70;91.00
3678;DHT22;1855;50.934;6.958;2023-05-16T07:47:32;11.80;88.90
3678;DHT22;1855;50.934;6.958;2023-05-16T07:49:59;11.80;86.00
3678;DHT22;1855;50.934;6.958;2023-05-16T07:52:26;11.80;87.80
3678;DHT22;1855;50.934;6.958;2023-05-16T07:54:52;11.80;86.90
3678;DHT22;1855;50.934;6.958;2023-05-16T07:57:21;11.80;86.90
3678;DHT22;1855;50.934;6.958;2023-05-16T07:59:47;12.00;86.00
3678;DHT22;1855;50.934;6.958;2023-05-16T08:02:16;12.10;84.00
3678;DHT22;1855;50.934;6.958;2023-05-16T08:04:43;12.10;81.60
3678;DHT22;1855;50.934;6.958;2023-05-16T08:07:10;12.20;81.00
3678;DHT22;1855;50.934;6.958;2023-05-16T08:09:36;12.30;80.60
3678;DHT22;1855;50.934;6.958;2023-05-16T08:12:04;12.50;79.30
3678;DHT22;1855;50.934;6.958;2023-05-16T08:14:32;12.70;77.90
3678;DHT22;1855;50.934;6.958;2023-05-16T08:16:59;13.00;76.80
3678;DHT22;1855;50.934;6.958;2023-05-16T08:19:26;13.30;74.70
3678;DHT22;1855;50.934;6.958;2023-05-16T08:21:53;13.80;73.10
3678;DHT22;1855;50.934;6.958;2023-05-16T08:24:20;14.20;73.00
3678;DHT22;1855;50.934;6.958;2023-05-16T08:26:47;14.50;69.20
3678;DHT22;1855;50.934;6.958;2023-05-16T08:29:14;14.70;68.80
3678;DHT22;1855;50.934;6.958;2023-05-16T08:31:42;14.60;67.80
3678;DHT22;1855;50.934;6.958;2023-05-16T08:34:09;14.40;66.00
3678;DHT22;1855;50.934;6.958;2023-05-16T08:36:35;14.20;67.60
3678;DHT22;1855;50.934;6.958;2023-05-16T08:39:02;14.10;69.10
3678;DHT22;1855;50.934;6.958;2023-05-16T08:41:30;13.90;68.40
3678;DHT22;1855;50.934;6.958;2023-05-16T08:43:57;13.80;67.40
3678;DHT22;1855;50.934;6.958;2023-05-16T08:46:24;13.70;68.20
3678;DHT22;1855;50.934;6.958;2023-05-16T08:48:58;13.70;68.50
3678;DHT22;1855;50.934;6.958;2023-05-16T08:51:28;13.60;65.20
3678;DHT22;1855;50.934;6.958;2023-05-16T08:54:01;13.60;67.60
3678;DHT22;1855;50.934;6.958;2023-05-16T08:56:28;13.60;68.10
3678;DHT22;1855;50.934;6.958;2023-05-16T08:58:56;13.80;67.30
3678;DHT22;1855;50.934;6.958;2023-05-16T09:01:23;14.10;67.10
3678;DHT22;1855;50.934;6.958;2023-05-16T09:03:51;14.40;66.70
3678;DHT22;1855;50.934;6.958;2023-05-16T09:06:19;14.80;65.40
3678;DHT22;1855;50.934;6.958;2023-05-16T09:08:46;15.20;63.10
3678;DHT22;1855;50.934;6.958;2023-05-16T09:11:13;15.40;63.00
3678;DHT22;1855;50.934;6.958;2023-05-16T09:13:40;15.60;59.40
3678;DHT22;1855;50.934;6.958;2023-05-16T09:16:07;15.70;55.20
3678;DHT22;1855;50.934;6.958;2023-05-16T09:18:34;15.60;55.50
3678;DHT22;1855;50.934;6.958;2023-05-16T09:21:02;15.60;55.40
3678;DHT22;1855;50.934;6.958;2023-05-16T09:23:30;15.50;54.20
3678;DHT22;1855;50.934;6.958;2023-05-16T09:25:57;15.40;54.30
3678;DHT22;1855;50.934;6.958;2023-05-16T09:28:24;15.30;55.20
3678;DHT22;1855;50.934;6.958;2023-05-16T09:30:52;15.40;54.50
3678;DHT22;1855;50.934;6.958;2023-05-16T09:33:21;15.70;53.40
3678;DHT22;1855;50.934;6.958;2023-05-16T09:35:54;15.90;53.50
3678;DHT22;1855;50.934;6.958;2023-05-16T09:38:21;16.10;52.60
3678;DHT22;1855;50.934;6.958;2023-05-16T09:40:49;16.00;52.30
3678;DHT22;1855;50.934;6.958;2023-05-16T09:43:17;15.90;51.20
3678;DHT22;1855;50.934;6.958;2023-05-16T09:45:45;15.80;52.70
3678;DHT22;1855;50.934;6.958;2023-05-16T09:48:14;15.80;52.50
3678;DHT22;1855;50.934;6.958;2023-05-16T09:50:45;15.80;52.50
3678;DHT22;1855;50.934;6.958;2023-05-16T09:53:14;16.00;48.60
3678;DHT22;1855;50.934;6.958;2023-05-16T09:55:40;16.10;50.60
3678;DHT22;1855;50.934;6.958;2023-05-16T09:58:09;16.10;50.00
3678;DHT22;1855;50.934;6.958;2023-05-16T10:00:36;16.00;50.30
3678;DHT22;1855;50.934;6.958;2023-05-16T10:03:03;16.00;51.10
3678;DHT22;1855;50.934;6.958;2023-05-16T10:05:30;16.10;51.30
3678;DHT22;1855;50.934;6.958;2023-05-16T10:07:57;16.30;51.50
3678;DHT22;1855;50.934;6.958;2023-05-16T10:10:24;16.10;49.00
3678;DHT22;1855;50.934;6.958;2023-05-16T10:12:54;15.80;48.90
3678;DHT22;1855;50.934;6.958;2023-05-16T10:15:26;15.80;50.70
3678;DHT22;1855;50.934;6.958;2023-05-16T10:17:55;16.20;50.70
3678;DHT22;1855;50.934;6.958;2023-05-16T10:20:24;16.40;49.10
3678;DHT22;1855;50.934;6.958;2023-05-16T10:22:54;16.60;48.90
3678;DHT22;1855;50.934;6.958;2023-05-16T10:25:25;17.00;47.40
3678;DHT22;1855;50.934;6.958;2023-05-16T10:27:54;17.10;47.30
3678;DHT22;1855;50.934;6.958;2023-05-16T10:30:21;17.40;46.60
3678;DHT22;1855;50.934;6.958;2023-05-16T10:32:50;17.60;43.60
3678;DHT22;1855;50.934;6.958;2023-05-16T10:35:18;17.80;43.10
3678;DHT22;1855;50.934;6.958;2023-05-16T10:37:46;18.00;43.30
3678;DHT22;1855;50.934;6.958;2023-05-16T10:40:13;18.20;42.90
3678;DHT22;1855;50.934;6.958;2023-05-16T10:42:43;18.20;41.70
3678;DHT22;1855;50.934;6.958;2023-05-16T10:45:16;18.40;41.80
3678;DHT22;1855;50.934;6.958;2023-05-16T10:47:52;18.60;40.90
3678;DHT22;1855;50.934;6.958;2023-05-16T10:50:32;19.00;39.40
3678;DHT22;1855;50.934;6.958;2023-05-16T10:53:18;18.90;39.10
3678;DHT22;1855;50.934;6.958;2023-05-16T10:55:50;19.00;39.20
3678;DHT22;1855;50.934;6.958;2023-05-16T10:58:40;19.30;38.70
3678;DHT22;1855;50.934;6.958;2023-05-16T11:01:14;19.70;38.40
3678;DHT22;1855;50.934;6.958;2023-05-16T11:06:44;19.80;37.70
3678;DHT22;1855;50.934;6.958;2023-05-16T11:09:25;19.60;37.60
3678;DHT22;1855;50.934;6.958;2023-05-16T11:11:59;19.30;38.50
3678;DHT22;1855;50.934;6.958;2023-05-16T11:14:28;18.90;40.20
3678;DHT22;1855;50.934;6.958;2023-05-16T11:17:02;18.60;39.80
3678;DHT22;1855;50.934;6.958;2023-05-16T11:19:33;18.50;40.60
3678;DHT22;1855;50.934;6.958;2023-05-16T11:22:22;18.60;40.40
3678;DHT22;1855;50.934;6.958;2023-05-16T11:24:51;19.10;40.60
3678;DHT22;1855;50.934;6.958;2023-05-16T11:27:24;19.60;38.80
3678;DHT22;1855;50.934;6.958;2023-05-16T11:29:51;20.00;38.70
3678;DHT22;1855;50.934;6.958;2023-05-16T11:32:19;20.40;37.50
3678;DHT22;1855;50.934;6.958;2023-05-16T11:34:47;20.50;36.90
3678;DHT22;1855;50.934;6.958;2023-05-16T11:37:16;20.70;37.10
3678;DHT22;1855;50.934;6.958;2023-05-16T11:39:44;20.70;37.10
3678;DHT22;1855;50.934;6.958;2023-05-16T11:42:11;20.80;37.40
3678;DHT22;1855;50.934;6.958;2023-05-16T11:44:38;20.60;37.20
3678;DHT22;1855;50.934;6.958;2023-05-16T11:47:05;20.40;37.20
3678;DHT22;1855;50.934;6.958;2023-05-16T11:49:33;20.00;38.70
3678;DHT22;1855;50.934;6.958;2023-05-16T11:52:00;19.60;38.20
3678;DHT22;1855;50.934;6.958;2023-05-16T11:54:28;19.10;38.80
3678;DHT22;1855;50.934;6.958;2023-05-16T11:56:55;18.80;40.90
3678;DHT22;1855;50.934;6.958;2023-05-16T11:59:21;18.60;41.50
3678;DHT22;1855;50.934;6.958;2023-05-16T12:01:48;18.50;42.80
3678;DHT22;1855;50.934;6.958;2023-05-16T12:04:16;18.40;41.80
3678;DHT22;1855;50.934;6.958;2023-05-16T12:06:57;18.50;43.80
3678;DHT22;1855;50.934;6.958;2023-05-16T12:09:24;18.80;42.00
3678;DHT22;1855;50.934;6.958;2023-05-16T12:11:52;19.30;42.10
3678;DHT22;1855;50.934;6.958;2023-05-16T12:14:19;19.80;40.10
3678;DHT22;1855;50.934;6.958;2023-05-16T12:16:46;20.10;38.40
3678;DHT22;1855;50.934;6.958;2023-05-16T12:19:13;20.20;38.90
3678;DHT22;1855;50.934;6.958;2023-05-16T12:21:41;20.00;37.90
3678;DHT22;1855;50.934;6.958;2023-05-16T12:24:09;19.90;39.00
3678;DHT22;1855;50.934;6.958;2023-05-16T12:26:39;20.00;39.40
3678;DHT22;1855;50.934;6.958;2023-05-16T12:29:09;20.40;41.00
3678;DHT22;1855;50.934;6.958;2023-05-16T12:31:38;20.90;40.70
3678;DHT22;1855;50.934;6.958;2023-05-16T12:34:14;21.20;38.00
3678;DHT22;1855;50.934;6.958;2023-05-16T12:36:41;21.70;37.10
3678;DHT22;1855;50.934;6.958;2023-05-16T12:39:11;21.80;33.40
3678;DHT22;1855;50.934;6.958;2023-05-16T12:41:40;21.70;35.30
3678;DHT22;1855;50.934;6.958;2023-05-16T12:44:12;21.60;35.00
3678;DHT22;1855;50.934;6.958;2023-05-16T12:46:41;21.50;33.60
3678;DHT22;1855;50.934;6.958;2023-05-16T12:49:08;21.30;36.90
3678;DHT22;1855;50.934;6.958;2023-05-16T12:51:38;21.20;36.10
3678;DHT22;1855;50.934;6.958;2023-05-16T12:54:09;21.20;36.20
3678;DHT22;1855;50.934;6.958;2023-05-16T12:56:37;21.20;35.90
3678;DHT22;1855;50.934;6.958;2023-05-16T12:59:04;20.80;37.00
3678;DHT22;1855;50.934;6.958;2023-05-16T13:01:32;20.50;38.60
3678;DHT22;1855;50.934;6.958;2023-05-16T13:03:59;20.90;37.80
3678;DHT22;1855;50.934;6.958;2023-05-16T13:06:26;21.10;35.60
3678;DHT22;1855;50.934;6.958;2023-05-16T13:08:53;21.00;35.80
3678;DHT22;1855;50.934;6.958;2023-05-16T13:11:20;21.00;37.90
3678;DHT22;1855;50.934;6.958;2023-05-16T13:13:47;21.20;36.90
3678;DHT22;1855;50.934;6.958;2023-05-16T13:16:14;21.20;37.30
3678;DHT22;1855;50.934;6.958;2023-05-16T13:18:43;21.50;37.40
3678;DHT22;1855;50.934;6.958;2023-05-16T13:21:10;21.90;35.40
3678;DHT22;1855;50.934;6.958;2023-05-16T13:23:36;22.20;35.80
3678;DHT22;1855;50.934;6.958;2023-05-16T13:26:03;22.40;34.70
3678;DHT22;1855;50.934;6.958;2023-05-16T13:28:30;22.30;33.40
3678;DHT22;1855;50.934;6.958;2023-05-16T13:30:57;22.40;34.80
3678;DHT22;1855;50.934;6.958;2023-05-16T13:33:24;22.70;34.60
3678;DHT22;1855;50.934;6.958;2023-05-16T13:35:52;22.80;34.30
3678;DHT22;1855;50.934;6.958;2023-05-16T13:38:19;23.20;32.10
3678;DHT22;1855;50.934;6.958;2023-05-16T13:40:46;23.50;29.60
3678;DHT22;1855;50.934;6.958;2023-05-16T13:43:13;23.50;30.00
3678;DHT22;1855;50.934;6.958;2023-05-16T13:45:40;24.00;30.20
3678;DHT22;1855;50.934;6.958;2023-05-16T13:48:08;24.50;29.90
3678;DHT22;1855;50.934;6.958;2023-05-16T13:50:35;25.20;29.40
3678;DHT22;1855;50.934;6.958;2023-05-16T13:53:05;25.60;29.10
3678;DHT22;1855;50.934;6.958;2023-05-16T13:55:31;25.20;27.90
3678;DHT22;1855;50.934;6.958;2023-05-16T13:57:58;24.30;29.10
3678;DHT22;1855;50.934;6.958;2023-05-16T14:00:25;23.90;29.60
3678;DHT22;1855;50.934;6.958;2023-05-16T14:02:52;23.80;29.80
3678;DHT22;1855;50.934;6.958;2023-05-16T14:05:19;23.00;28.80
3678;DHT22;1855;50.934;6.958;2023-05-16T14:07:45;22.60;29.90
3678;DHT22;1855;50.934;6.958;2023-05-16T14:10:14;22.90;29.60
3678;DHT22;1855;50.934;6.958;2023-05-16T14:12:40;22.70;29.90
3678;DHT22;1855;50.934;6.958;2023-05-16T14:15:08;23.10;29.80
3678;DHT22;1855;50.934;6.958;2023-05-16T14:17:35;24.20;28.70
3678;DHT22;1855;50.934;6.958;2023-05-16T14:20:02;25.70;27.50
3678;DHT22;1855;50.934;6.958;2023-05-16T14:22:33;27.10;27.10
3678;DHT22;1855;50.934;6.958;2023-05-16T14:25:00;27.70;23.40
3678;DHT22;1855;50.934;6.958;2023-05-16T14:27:28;27.10;24.70
3678;DHT22;1855;50.934;6.958;2023-05-16T14:29:55;27.50;24.30
3678;DHT22;1855;50.934;6.958;2023-05-16T14:32:22;27.40;24.40
3678;DHT22;1855;50.934;6.958;2023-05-16T14:34:48;27.50;24.60
3678;DHT22;1855;50.934;6.958;2023-05-16T14:37:15;27.70;24.60
3678;DHT22;1855;50.934;6.958;2023-05-16T14:39:43;27.30;23.80
3678;DHT22;1855;50.934;6.958;2023-05-16T14:42:10;26.50;24.40
3678;DHT22;1855;50.934;6.958;2023-05-16T14:44:39;25.20;25.30
3678;DHT22;1855;50.934;6.958;2023-05-16T14:47:06;24.30;26.60
3678;DHT22;1855;50.934;6.958;2023-05-16T14:49:33;23.80;28.70
3678;DHT22;1855;50.934;6.958;2023-05-16T14:52:00;23.70;28.10
3678;DHT22;1855;50.934;6.958;2023-05-16T14:54:27;23.40;28.60
3678;DHT22;1855;50.934;6.958;2023-05-16T14:56:53;22.80;29.00
3678;DHT22;1855;50.934;6.958;2023-05-16T14:59:21;22.20;29.80
3678;DHT22;1855;50.934;6.958;2023-05-16T15:01:49;21.50;31.60
3678;DHT22;1855;50.934;6.958;2023-05-16T15:04:15;20.70;30.80
3678;DHT22;1855;50.934;6.958;2023-05-16T15:06:42;20.10;33.40
3678;DHT22;1855;50.934;6.958;2023-05-16T15:09:09;19.50;35.50
3678;DHT22;1855;50.934;6.958;2023-05-16T15:11:35;19.20;35.40
3678;DHT22;1855;50.934;6.958;2023-05-16T15:14:02;19.10;36.00
3678;DHT22;1855;50.934;6.958;2023-05-16T15:16:29;19.00;36.40
3678;DHT22;1855;50.934;6.958;2023-05-16T15:18:57;19.00;36.80
3678;DHT22;1855;50.934;6.958;2023-05-16T15:21:24;19.00;37.10
3678;DHT22;1855;50.934;6.958;2023-05-16T15:23:51;19.30;37.00
3678;DHT22;1855;50.934;6.958;2023-05-16T15:26:19;19.80;36.50
3678;DHT22;1855;50.934;6.958;2023-05-16T15:28:47;20.20;35.80
3678;DHT22;1855;50.934;6.958;2023-05-16T15:31:13;20.20;35.20
3678;DHT22;1855;50.934;6.958;2023-05-16T15:33:40;20.00;35.80
3678;DHT22;1855;50.934;6.958;2023-05-16T15:36:10;19.70;36.60
3678;DHT22;1855;50.934;6.958;2023-05-16T15:38:37;19.40;36.70
3678;DHT22;1855;50.934;6.958;2023-05-16T15:41:08;19.00;38.20
3678;DHT22;1855;50.934;6.958;2023-05-16T15:43:35;18.80;38.00
3678;DHT22;1855;50.934;6.958;2023-05-16T15:46:02;18.50;40.00
3678;DHT22;1855;50.934;6.958;2023-05-16T15:48:28;18.30;40.00
3678;DHT22;1855;50.934;6.958;2023-05-16T15:50:55;18.20;40.00
3678;DHT22;1855;50.934;6.958;2023-05-16T15:53:23;18.00;39.90
3678;DHT22;1855;50.934;6.958;2023-05-16T15:55:50;18.00;39.30
3678;DHT22;1855;50.934;6.958;2023-05-16T15:58:17;17.90;40.00
3678;DHT22;1855;50.934;6.958;2023-05-16T16:00:44;17.80;40.10
3678;DHT22;1855;50.934;6.958;2023-05-16T16:03:11;17.60;40.00
3678;DHT22;1855;50.934;6.958;2023-05-16T16:05:37;17.60;40.10
3678;DHT22;1855;50.934;6.958;2023-05-16T16:08:04;17.70;40.20
3678;DHT22;1855;50.934;6.958;2023-05-16T16:10:32;18.20;39.20
3678;DHT22;1855;50.934;6.958;2023-05-16T16:12:59;19.10;37.70